createdAt,value
2022-11-22T00:00:49.003Z,99068.47
2022-11-22T00:03:16.742Z,99061.09
2022-11-22T00:05:45.859Z,99061.88
2022-11-22T00:08:13.832Z,99063.81
2022-11-22T00:10:41.558Z,99058.13
2022-11-22T00:13:09.561Z,99058.59
2022-11-22T00:15:37.264Z,99052.72
2022-11-22T00:18:07.724Z,99052.22
2022-11-22T00:20:36.119Z,99060.63
2022-11-22T00:23:05.301Z,99053.75
2022-11-22T00:25:33.011Z,99057.66
2022-11-22T00:28:00.771Z,99060.34
2022-11-22T00:30:28.491Z,99057.19
2022-11-22T00:32:56.253Z,99052.06
2022-11-22T00:35:23.977Z,99038.81
2022-11-22T00:37:51.744Z,99046.44
2022-11-22T00:40:20.839Z,99045.25
2022-11-22T00:42:48.569Z,99041.59
2022-11-22T00:45:16.467Z,99036.47
2022-11-22T00:47:44.229Z,99049.63
2022-11-22T00:50:12.245Z,99052.34
2022-11-22T00:52:40.239Z,99055.34
2022-11-22T00:55:08.938Z,99061.50
2022-11-22T00:57:38.067Z,99055.13
2022-11-22T01:00:07.425Z,99053.72
2022-11-22T01:02:35.207Z,99043.47
2022-11-22T01:05:03.019Z,99054.75
2022-11-22T01:07:30.815Z,99061.22
2022-11-22T01:09:58.595Z,99065.69
2022-11-22T01:12:26.361Z,99065.97
2022-11-22T01:14:55.418Z,99058.03
2022-11-22T01:17:23.204Z,99061.31
2022-11-22T01:19:50.915Z,99065.97
2022-11-22T01:22:18.671Z,99061.97
2022-11-22T01:24:46.481Z,99045.59
2022-11-22T01:27:14.218Z,99057.09
2022-11-22T01:29:41.903Z,99052.63
2022-11-22T01:32:10.954Z,99051.31
2022-11-22T01:34:38.734Z,99060.91
2022-11-22T01:37:06.469Z,99052.81
2022-11-22T01:39:34.331Z,99045.63
2022-11-22T01:42:02.088Z,99050.28
2022-11-22T01:44:31.688Z,99057.00
2022-11-22T01:47:01.780Z,99056.75
2022-11-22T01:49:36.585Z,99049.72
2022-11-22T01:52:08.608Z,99054.41
2022-11-22T01:54:41.580Z,99050.09
2022-11-22T01:57:14.148Z,99055.09
2022-11-22T01:59:44.867Z,99063.06
2022-11-22T02:02:13.986Z,99057.81
2022-11-22T02:04:44.692Z,99050.81
2022-11-22T02:07:18.076Z,99057.88
2022-11-22T02:09:47.420Z,99063.78
2022-11-22T02:12:17.103Z,99069.47
2022-11-22T02:14:46.008Z,99075.06
2022-11-22T02:17:13.748Z,99074.22
2022-11-22T02:19:44.503Z,99073.44
2022-11-22T02:22:22.964Z,99075.25
2022-11-22T02:24:56.530Z,99077.19
2022-11-22T02:27:25.891Z,99078.69
2022-11-22T02:29:53.781Z,99087.09
2022-11-22T02:32:21.734Z,99075.34
2022-11-22T02:34:51.394Z,99075.34
2022-11-22T02:37:23.780Z,99090.25
2022-11-22T02:39:53.973Z,99076.72
2022-11-22T02:42:22.399Z,99082.72
2022-11-22T02:44:51.618Z,99085.88
2022-11-22T02:47:19.375Z,99089.31
2022-11-22T02:49:47.121Z,99082.88
2022-11-22T02:52:17.878Z,99082.22
2022-11-22T02:54:45.860Z,99081.50
2022-11-22T02:57:13.624Z,99085.59
2022-11-22T02:59:41.344Z,99083.44
2022-11-22T03:02:10.535Z,99080.75
2022-11-22T03:04:38.298Z,99078.78
2022-11-22T03:07:06.280Z,99079.72
2022-11-22T03:09:34.170Z,99083.16
2022-11-22T03:12:01.977Z,99096.41
2022-11-22T03:14:29.788Z,99104.06
2022-11-22T03:16:57.511Z,99108.25
2022-11-22T03:19:26.741Z,99113.66
2022-11-22T03:21:54.441Z,99109.94
2022-11-22T03:24:22.293Z,99126.91
2022-11-22T03:26:50.959Z,99126.34
2022-11-22T03:29:18.999Z,99108.16
2022-11-22T03:31:46.757Z,99121.09
2022-11-22T03:34:14.944Z,99121.28
2022-11-22T03:36:44.191Z,99124.16
2022-11-22T03:39:11.911Z,99119.38
2022-11-22T03:41:39.666Z,99126.00
2022-11-22T03:44:07.855Z,99125.72
2022-11-22T03:46:35.654Z,99130.38
2022-11-22T03:49:03.401Z,99131.44
2022-11-22T03:51:31.163Z,99121.34
2022-11-22T03:54:00.291Z,99129.63
2022-11-22T03:56:28.035Z,99131.75
2022-11-22T03:58:55.724Z,99131.94
2022-11-22T04:01:23.795Z,99131.94
2022-11-22T04:03:52.258Z,99144.22
2022-11-22T04:06:20.018Z,99141.72
2022-11-22T04:08:47.888Z,99138.41
2022-11-22T04:11:17.079Z,99132.91
2022-11-22T04:14:02.467Z,99138.00
2022-11-22T04:16:30.268Z,99144.16
2022-11-22T04:18:57.989Z,99143.88
2022-11-22T04:21:33.885Z,99139.69
2022-11-22T04:24:19.488Z,99144.50
2022-11-22T04:26:49.239Z,99143.16
2022-11-22T04:29:17.693Z,99141.84
2022-11-22T04:32:03.568Z,99146.94
2022-11-22T04:34:31.389Z,99153.28
2022-11-22T04:36:59.155Z,99147.38
2022-11-22T04:39:27.637Z,99145.78
2022-11-22T04:42:11.659Z,99144.91
2022-11-22T04:44:42.044Z,99142.81
2022-11-22T04:47:10.756Z,99152.28
2022-11-22T04:49:38.524Z,99155.72
2022-11-22T04:52:24.143Z,99159.66
2022-11-22T04:54:51.942Z,99160.53
2022-11-22T04:57:21.021Z,99161.31
2022-11-22T04:59:48.725Z,99165.66
2022-11-22T05:02:16.477Z,99164.91
2022-11-22T05:04:50.284Z,99174.22
2022-11-22T05:07:18.589Z,99169.44
2022-11-22T05:09:46.479Z,99167.50
2022-11-22T05:12:14.215Z,99173.81
2022-11-22T05:14:43.391Z,99168.41
2022-11-22T05:17:13.319Z,99171.84
2022-11-22T05:19:46.269Z,99177.38
2022-11-22T05:22:17.198Z,99177.38
2022-11-22T05:24:43.970Z,99179.34
2022-11-22T05:27:11.828Z,99184.28
2022-11-22T05:29:39.516Z,99182.03
2022-11-22T05:32:08.602Z,99182.19
2022-11-22T05:34:36.414Z,99187.00
2022-11-22T05:37:04.129Z,99190.75
2022-11-22T05:39:32.101Z,99186.28
2022-11-22T05:42:00.003Z,99191.38
2022-11-22T05:44:27.789Z,99183.84
2022-11-22T05:46:55.574Z,99179.06
2022-11-22T05:49:24.668Z,99184.47
2022-11-22T05:51:52.737Z,99186.84
2022-11-22T05:54:20.514Z,99181.47
2022-11-22T05:56:48.865Z,99183.13
2022-11-22T05:59:16.609Z,99181.47
2022-11-22T06:01:44.390Z,99183.41
2022-11-22T06:04:12.380Z,99177.13
2022-11-22T06:06:41.472Z,99188.81
2022-11-22T06:09:09.214Z,99197.34
2022-11-22T06:11:37.027Z,99189.72
2022-11-22T06:14:04.839Z,99189.09
2022-11-22T06:16:32.695Z,99198.25
2022-11-22T06:19:00.441Z,99196.44
2022-11-22T06:21:28.629Z,99191.78
2022-11-22T06:23:57.956Z,99194.00
2022-11-22T06:26:26.123Z,99206.34
2022-11-22T06:28:55.637Z,99198.97
2022-11-22T06:31:24.809Z,99192.38
2022-11-22T06:33:54.715Z,99189.97
2022-11-22T06:36:24.036Z,99189.81
2022-11-22T06:38:52.489Z,99195.22
2022-11-22T06:41:23.471Z,99184.41
2022-11-22T06:43:52.872Z,99189.50
2022-11-22T06:46:23.490Z,99189.38
2022-11-22T06:48:51.769Z,99195.34
2022-11-22T06:51:21.970Z,99189.38
2022-11-22T06:53:50.826Z,99188.91
2022-11-22T06:56:21.837Z,99195.81
2022-11-22T06:58:51.680Z,99200.16
2022-11-22T07:01:21.321Z,99206.13
2022-11-22T07:03:50.150Z,99204.19
2022-11-22T07:06:20.282Z,99204.63
2022-11-22T07:08:48.209Z,99207.03
2022-11-22T07:11:18.104Z,99211.09
2022-11-22T07:13:47.851Z,99206.63
2022-11-22T07:16:17.118Z,99212.31
2022-11-22T07:18:47.910Z,99208.84
2022-11-22T07:21:18.580Z,99205.88
2022-11-22T07:23:47.902Z,99218.91
2022-11-22T07:26:16.961Z,99221.47
2022-11-22T07:28:45.551Z,99221.28
2022-11-22T07:31:16.524Z,99227.91
2022-11-22T07:33:44.916Z,99230.91
2022-11-22T07:36:14.629Z,99225.03
2022-11-22T07:38:42.406Z,99225.03
2022-11-22T07:41:10.583Z,99234.38
2022-11-22T07:43:38.930Z,99230.44
2022-11-22T07:46:08.583Z,99230.44
2022-11-22T07:48:37.712Z,99229.25
2022-11-22T07:51:06.696Z,99233.63
2022-11-22T07:53:35.750Z,99229.69
2022-11-22T07:56:04.096Z,99237.06
2022-11-22T07:58:31.835Z,99233.91
2022-11-22T08:00:59.640Z,99238.84
2022-11-22T08:03:29.358Z,99226.84
2022-11-22T08:06:02.240Z,99239.75
2022-11-22T08:08:30.491Z,99237.06
2022-11-22T08:10:58.412Z,99234.34
2022-11-22T08:13:26.239Z,99228.19
2022-11-22T08:15:57.551Z,99231.66
2022-11-22T08:18:27.429Z,99242.16
2022-11-22T08:21:05.027Z,99234.78
2022-11-22T08:23:32.898Z,99241.72
2022-11-22T08:26:01.252Z,99237.06
2022-11-22T08:28:29.091Z,99245.91
2022-11-22T08:31:04.508Z,99257.00
2022-11-22T08:33:32.563Z,99238.38
2022-11-22T08:36:00.351Z,99252.19
2022-11-22T08:38:29.572Z,99244.41
2022-11-22T08:40:57.348Z,99247.66
2022-11-22T08:43:25.669Z,99268.09
2022-11-22T08:45:56.823Z,99268.53
2022-11-22T08:48:25.110Z,99262.38
2022-11-22T08:50:53.731Z,99265.06
2022-11-22T08:53:21.545Z,99269.28
2022-11-22T08:55:51.717Z,99260.28
2022-11-22T08:58:19.848Z,99262.78
2022-11-22T09:00:47.651Z,99269.09
2022-11-22T09:03:15.399Z,99280.78
2022-11-22T09:08:34.261Z,99291.16
2022-11-22T09:11:07.898Z,99277.47
2022-11-22T09:13:36.347Z,99279.59
2022-11-22T09:16:04.836Z,99283.63
2022-11-22T09:18:32.874Z,99295.19
2022-11-22T09:21:01.191Z,99286.16
2022-11-22T09:23:29.179Z,99286.44
2022-11-22T09:26:01.451Z,99287.97
2022-11-22T09:28:30.631Z,99295.16
2022-11-22T09:31:02.433Z,99294.09
2022-11-22T09:33:30.626Z,99308.66
2022-11-22T09:36:02.637Z,99293.19
2022-11-22T09:38:30.992Z,99305.06
2022-11-22T09:40:59.917Z,99299.34
2022-11-22T09:43:42.757Z,99306.44
2022-11-22T09:46:23.679Z,99302.53
2022-11-22T09:49:19.496Z,99311.69
2022-11-22T09:51:53.598Z,99308.25
2022-11-22T09:54:25.065Z,99305.34
2022-11-22T09:56:58.655Z,99296.16
2022-11-22T09:59:32.676Z,99300.06
2022-11-22T10:02:17.692Z,99295.41
2022-11-22T10:04:52.900Z,99303.94
2022-11-22T10:07:24.758Z,99306.50
2022-11-22T10:10:00.131Z,99303.31
2022-11-22T10:12:36.264Z,99298.38
2022-11-22T10:15:14.137Z,99296.88
2022-11-22T10:17:55.010Z,99293.13
2022-11-22T10:20:24.957Z,99294.63
2022-11-22T10:22:52.922Z,99287.25
2022-11-22T10:25:23.263Z,99297.63
2022-11-22T10:27:57.549Z,99292.19
2022-11-22T10:30:35.839Z,99287.25
2022-11-22T10:33:14.160Z,99295.84
2022-11-22T10:36:02.749Z,99301.25
2022-11-22T10:38:51.903Z,99289.69
2022-11-22T10:41:27.522Z,99297.47
2022-11-22T10:44:08.404Z,99284.03
2022-11-22T10:46:48.000Z,99272.88
2022-11-22T10:49:25.321Z,99280.94
2022-11-22T10:52:01.612Z,99289.06
2022-11-22T10:54:38.443Z,99276.28
2022-11-22T10:57:16.084Z,99276.56
2022-11-22T10:59:54.437Z,99284.34
2022-11-22T11:02:47.636Z,99269.53
2022-11-22T11:05:20.556Z,99274.13
2022-11-22T11:07:56.553Z,99279.38
2022-11-22T11:10:34.807Z,99269.63
2022-11-22T11:13:06.835Z,99260.25
2022-11-22T11:15:39.414Z,99257.44
2022-11-22T11:18:16.308Z,99261.47
2022-11-22T11:20:47.605Z,99252.69
2022-11-22T11:23:16.460Z,99267.56
2022-11-22T11:25:45.919Z,99264.56
2022-11-22T11:28:19.595Z,99254.47
2022-11-22T11:30:50.184Z,99256.78
2022-11-22T11:33:38.676Z,99270.56
2022-11-22T11:36:08.391Z,99251.28
2022-11-22T11:38:38.367Z,99251.75
2022-11-22T11:41:21.508Z,99245.75
2022-11-22T11:43:49.912Z,99247.06
2022-11-22T11:46:19.631Z,99243.03
2022-11-22T11:48:49.577Z,99247.56
2022-11-22T11:51:21.744Z,99237.06
2022-11-22T11:54:02.927Z,99244.56
2022-11-22T11:56:48.062Z,99254.38
2022-11-22T11:59:18.138Z,99250.63
2022-11-22T12:01:51.875Z,99263.16
2022-11-22T12:04:27.292Z,99252.50
2022-11-22T12:07:03.031Z,99250.53
2022-11-22T12:09:37.038Z,99248.88
2022-11-22T12:12:18.134Z,99242.03
2022-11-22T12:15:10.179Z,99255.31
2022-11-22T12:17:50.371Z,99244.94
2022-11-22T12:20:23.594Z,99240.25
2022-11-22T12:23:02.135Z,99246.16
2022-11-22T12:25:35.403Z,99249.88
2022-11-22T12:28:14.048Z,99246.72
2022-11-22T12:30:45.644Z,99243.44
2022-11-22T12:33:20.111Z,99243.44
2022-11-22T12:35:50.796Z,99239.88
2022-11-22T12:38:23.838Z,99232.41
2022-11-22T12:40:55.463Z,99236.63
2022-11-22T12:43:28.559Z,99228.94
2022-11-22T12:45:59.211Z,99230.16
2022-11-22T12:48:31.269Z,99233.16
2022-11-22T12:51:07.571Z,99229.50
2022-11-22T12:53:38.654Z,99234.84
2022-11-22T12:56:17.432Z,99228.47
2022-11-22T12:58:53.091Z,99237.44
2022-11-22T13:01:26.250Z,99231.94
2022-11-22T13:03:58.324Z,99224.88
2022-11-22T13:06:33.896Z,99229.47
2022-11-22T13:09:06.308Z,99226.19
2022-11-22T13:11:40.285Z,99227.22
2022-11-22T13:14:19.373Z,99233.13
2022-11-22T13:16:50.268Z,99232.34
2022-11-22T13:19:21.077Z,99224.50
2022-11-22T13:22:09.715Z,99229.06
2022-11-22T13:24:49.506Z,99221.28
2022-11-22T13:27:22.222Z,99222.97
2022-11-22T13:29:53.984Z,99222.97
2022-11-22T13:32:23.663Z,99215.78
2022-11-22T13:35:08.412Z,99215.09
2022-11-22T13:37:41.407Z,99230.38
2022-11-22T13:40:25.812Z,99215.22
2022-11-22T13:43:30.673Z,99220.38
2022-11-22T13:46:00.739Z,99233.19
2022-11-22T13:49:13.185Z,99219.81
2022-11-22T13:51:52.614Z,99235.16
2022-11-22T13:54:58.596Z,99222.34
2022-11-22T13:57:35.639Z,99217.00
2022-11-22T14:00:39.778Z,99208.09
2022-11-22T14:03:37.197Z,99210.06
2022-11-22T14:06:25.794Z,99217.19
2022-11-22T14:09:16.059Z,99215.03
2022-11-22T14:11:55.448Z,99216.25
2022-11-22T14:14:30.344Z,99211.28
2022-11-22T14:17:10.076Z,99197.25
2022-11-22T14:19:54.337Z,99201.09
2022-11-22T14:22:32.507Z,99200.81
2022-11-22T14:25:19.572Z,99200.25
2022-11-22T14:27:53.337Z,99209.63
2022-11-22T14:30:22.434Z,99204.66
2022-11-22T14:32:55.022Z,99213.25
2022-11-22T14:35:30.094Z,99210.53
2022-11-22T14:38:29.492Z,99207.09
2022-11-22T14:41:31.099Z,99204.59
2022-11-22T14:44:03.225Z,99206.06
2022-11-22T14:46:52.883Z,99213.47
2022-11-22T14:49:31.136Z,99221.78
2022-11-22T14:52:00.363Z,99224.22
2022-11-22T14:54:31.757Z,99226.00
2022-11-22T14:57:04.699Z,99222.06
2022-11-22T14:59:58.273Z,99216.91
2022-11-22T15:02:52.847Z,99222.53
2022-11-22T15:09:11.953Z,99232.56
2022-11-22T15:09:19.842Z,99229.13
2022-11-22T15:11:45.285Z,99230.13
2022-11-22T15:57:35.234Z,99272.84
2022-11-22T16:00:04.208Z,99263.13
2022-11-22T16:02:39.676Z,99267.69
2022-11-22T16:06:07.161Z,99259.44
2022-11-22T16:07:59.218Z,99252.53
2022-11-22T16:10:37.208Z,99254.03
2022-11-22T16:13:25.553Z,99250.66
2022-11-22T16:16:06.656Z,99271.72
2022-11-22T16:18:34.611Z,99252.84
2022-11-22T16:21:21.219Z,99255.84
2022-11-22T16:23:49.026Z,99251.47
2022-11-22T16:26:21.971Z,99252.94
2022-11-22T16:28:51.502Z,99249.03
2022-11-22T16:31:23.920Z,99264.34
2022-11-22T16:33:52.871Z,99262.88
2022-11-22T16:36:23.598Z,99255.94
2022-11-22T16:38:51.936Z,99257.63
2022-11-22T16:41:21.847Z,99258.56
2022-11-22T16:43:51.002Z,99250.34
2022-11-22T16:46:19.170Z,99259.09
2022-11-22T16:48:47.271Z,99260.19
2022-11-22T16:51:17.424Z,99258.88
2022-11-22T16:53:48.959Z,99254.38
2022-11-22T16:56:20.347Z,99257.56
2022-11-22T16:58:48.762Z,99263.44
2022-11-22T17:01:18.946Z,99254.56
2022-11-22T17:03:48.667Z,99256.78
2022-11-22T17:06:18.894Z,99257.72
2022-11-22T17:08:49.364Z,99255.28
2022-11-22T17:11:19.089Z,99267.63
2022-11-22T17:13:47.123Z,99268.38
2022-11-22T17:16:17.685Z,99259.19
2022-11-22T17:18:46.156Z,99253.53
2022-11-22T17:21:17.686Z,99263.44
2022-11-22T17:23:45.946Z,99265.94
2022-11-22T17:26:15.065Z,99268.94
2022-11-22T17:28:42.854Z,99274.34
2022-11-22T17:31:13.933Z,99263.22
2022-11-22T17:33:41.975Z,99280.53
2022-11-22T17:36:20.610Z,99274.94
2022-11-22T17:38:48.832Z,99282.94
2022-11-22T17:41:18.036Z,99287.56
2022-11-22T17:43:46.049Z,99287.13
2022-11-22T17:46:13.791Z,99289.09
2022-11-22T17:48:41.632Z,99285.16
2022-11-22T17:51:10.195Z,99281.53
2022-11-22T17:53:40.638Z,99286.00
2022-11-22T17:56:11.500Z,99287.06
2022-11-22T17:58:41.830Z,99270.59
2022-11-22T18:01:13.309Z,99289.69
2022-11-22T18:03:42.241Z,99286.03
2022-11-22T18:06:11.720Z,99287.25
2022-11-22T18:08:46.432Z,99296.13
2022-11-22T18:11:15.811Z,99296.41
2022-11-22T18:13:44.984Z,99298.38
2022-11-22T18:16:15.498Z,99291.94
2022-11-22T18:18:59.431Z,99284.25
2022-11-22T18:21:29.053Z,99284.72
2022-11-22T18:23:57.888Z,99285.19
2022-11-22T18:26:41.766Z,99287.78
2022-11-22T18:32:00.450Z,99267.34
2022-11-22T18:34:29.050Z,99279.66
2022-11-22T18:37:01.818Z,99274.72
2022-11-22T18:39:31.859Z,99279.84
2022-11-22T18:41:59.961Z,99283.59
2022-11-22T18:44:29.153Z,99277.44
2022-11-22T18:46:56.880Z,99288.81
2022-11-22T18:49:24.605Z,99289.09
2022-11-22T18:51:52.431Z,99293.34
2022-11-22T18:54:21.689Z,99296.31
2022-11-22T18:56:49.560Z,99300.81
2022-11-22T18:59:19.946Z,99297.44
2022-11-22T19:01:49.109Z,99304.66
2022-11-22T19:04:17.215Z,99309.91
2022-11-22T19:06:45.556Z,99308.50
2022-11-22T19:09:13.744Z,99305.13
2022-11-22T19:11:41.647Z,99304.94
2022-11-22T19:14:09.419Z,99324.22
2022-11-22T19:16:37.235Z,99322.53
2022-11-22T19:19:08.130Z,99316.94
2022-11-22T19:21:35.870Z,99325.81
2022-11-22T19:24:03.631Z,99318.41
2022-11-22T19:26:31.470Z,99328.81
2022-11-22T19:29:02.596Z,99328.16
2022-11-22T19:31:31.445Z,99316.66
2022-11-22T19:33:59.989Z,99318.44
2022-11-22T19:36:33.627Z,99309.81
2022-11-22T19:39:03.243Z,99314.03
2022-11-22T19:41:31.884Z,99315.53
2022-11-22T19:44:00.029Z,99316.56
2022-11-22T19:46:28.094Z,99325.19
2022-11-22T19:48:57.595Z,99331.72
2022-11-22T19:51:26.353Z,99326.19
2022-11-22T19:53:58.729Z,99331.81
2022-11-22T19:56:30.235Z,99335.47
2022-11-22T19:58:59.651Z,99329.53
2022-11-22T20:01:29.158Z,99326.56
2022-11-22T20:03:59.027Z,99328.06
2022-11-22T20:06:27.936Z,99334.22
2022-11-22T20:09:02.783Z,99335.47
2022-11-22T20:11:30.655Z,99345.81
2022-11-22T20:14:01.002Z,99329.25
2022-11-22T20:16:30.597Z,99345.81
2022-11-22T20:19:00.186Z,99331.81
2022-11-22T20:21:29.554Z,99335.53
2022-11-22T20:23:57.728Z,99333.84
2022-11-22T20:26:27.815Z,99327.22
2022-11-22T20:28:56.777Z,99337.31
2022-11-22T20:31:25.252Z,99327.69
2022-11-22T20:33:54.554Z,99329.19
2022-11-22T20:36:24.176Z,99328.91
2022-11-22T20:38:52.763Z,99330.84
2022-11-22T20:41:22.328Z,99342.75
2022-11-22T20:43:51.923Z,99342.28
2022-11-22T20:46:21.820Z,99345.28
2022-11-22T20:48:50.480Z,99357.16
2022-11-22T20:51:19.739Z,99355.00
2022-11-22T20:53:47.902Z,99346.69
2022-11-22T20:56:16.520Z,99350.97
2022-11-22T20:58:44.684Z,99350.53
2022-11-22T21:01:16.627Z,99351.28
2022-11-22T21:03:44.610Z,99339.97
2022-11-22T21:06:13.349Z,99350.81
2022-11-22T21:08:41.539Z,99348.84
2022-11-22T21:11:12.884Z,99356.41
2022-11-22T21:13:42.114Z,99359.41
2022-11-22T21:16:25.200Z,99349.59
2022-11-22T21:18:53.504Z,99360.72
2022-11-22T21:21:23.734Z,99363.16
2022-11-22T21:23:52.973Z,99359.41
2022-11-22T21:26:20.985Z,99364.09
2022-11-22T21:28:48.743Z,99363.59
2022-11-22T21:31:18.692Z,99363.16
2022-11-22T21:33:46.814Z,99375.78
2022-11-22T21:36:14.949Z,99383.00
2022-11-22T21:38:42.871Z,99377.38
2022-11-22T21:41:38.929Z,99376.34
2022-11-22T21:44:02.049Z,99376.91
2022-11-22T21:46:31.151Z,99382.06
2022-11-22T21:48:58.917Z,99389.44
2022-11-22T21:51:26.921Z,99389.25
2022-11-22T21:53:57.701Z,99396.84
2022-11-22T21:56:25.612Z,99387.75
2022-11-22T21:58:53.381Z,99385.13
2022-11-22T22:01:21.219Z,99388.63
2022-11-22T22:03:50.492Z,99394.59
2022-11-22T22:06:18.311Z,99401.81
2022-11-22T22:08:46.139Z,99396.38
2022-11-22T22:11:13.924Z,99398.59
2022-11-22T22:13:41.610Z,99409.19
2022-11-22T22:16:15.645Z,99407.50
2022-11-22T22:18:44.024Z,99401.53
2022-11-22T22:21:14.018Z,99405.25
2022-11-22T22:23:42.885Z,99400.13
2022-11-22T22:26:12.690Z,99405.06
2022-11-22T22:28:40.884Z,99402.34
2022-11-22T22:31:10.483Z,99410.78
2022-11-22T22:33:39.796Z,99405.84
2022-11-22T22:36:09.228Z,99406.09
2022-11-22T22:38:38.955Z,99413.31
2022-11-22T22:41:07.886Z,99418.25
2022-11-22T22:43:38.067Z,99413.78
2022-11-22T22:46:07.631Z,99412.09
2022-11-22T22:48:35.647Z,99403.47
2022-11-22T22:51:07.846Z,99412.94
2022-11-22T22:53:36.091Z,99421.38
2022-11-22T22:56:06.781Z,99427.34
2022-11-22T22:58:34.767Z,99419.97
2022-11-22T23:01:07.560Z,99414.31
2022-11-22T23:03:37.883Z,99424.22
2022-11-22T23:06:07.521Z,99421.81
2022-11-22T23:08:35.518Z,99430.22
2022-11-22T23:11:06.453Z,99437.16
2022-11-22T23:13:36.074Z,99424.34
2022-11-22T23:16:04.548Z,99432.75
2022-11-22T23:18:35.775Z,99431.34
2022-11-22T23:21:05.286Z,99432.09
2022-11-22T23:23:33.937Z,99432.09
2022-11-22T23:26:03.418Z,99437.81
2022-11-22T23:28:33.225Z,99436.88
2022-11-22T23:31:08.484Z,99439.88
2022-11-22T23:33:36.569Z,99442.13
2022-11-22T23:36:05.529Z,99442.84
2022-11-22T23:38:34.052Z,99444.34
2022-11-22T23:41:02.334Z,99447.34
2022-11-22T23:43:31.730Z,99451.09
2022-11-22T23:46:00.130Z,99450.63
2022-11-22T23:48:28.630Z,99462.97
2022-11-22T23:50:56.832Z,99461.28
2022-11-22T23:53:24.532Z,99467.19
2022-11-22T23:55:52.324Z,99458.84
2022-11-22T23:58:21.221Z,99461.09
